createdAt,value
2018-04-18T00:00:55.526Z,0.00
2018-04-18T00:01:55.508Z,0.00
2018-04-18T00:02:55.498Z,0.00
2018-04-18T00:03:55.481Z,0.00
2018-04-18T00:04:55.473Z,0.00
2018-04-18T00:05:55.454Z,0.00
2018-04-18T00:06:55.443Z,0.00
2018-04-18T00:07:55.423Z,0.00
2018-04-18T00:08:55.423Z,0.00
2018-04-18T00:09:55.398Z,0.00
2018-04-18T00:10:55.385Z,0.00
2018-04-18T00:11:55.376Z,0.00
2018-04-18T00:12:55.353Z,0.00
2018-04-18T00:13:55.340Z,0.00
2018-04-18T00:14:55.334Z,0.00
2018-04-18T00:15:55.315Z,0.00
2018-04-18T00:16:55.303Z,0.00
2018-04-18T00:17:55.289Z,0.00
2018-04-18T00:18:55.274Z,0.00
2018-04-18T00:19:55.256Z,0.00
2018-04-18T00:20:55.252Z,0.00
2018-04-18T00:21:55.231Z,0.00
2018-04-18T00:22:55.222Z,0.00
2018-04-18T00:23:55.202Z,0.00
2018-04-18T00:24:55.198Z,0.00
2018-04-18T00:25:55.183Z,0.00
2018-04-18T00:26:55.198Z,0.00
2018-04-18T00:27:55.152Z,0.00
2018-04-18T00:28:55.131Z,0.00
2018-04-18T00:29:55.122Z,0.00
2018-04-18T00:30:55.110Z,0.00
2018-04-18T00:31:55.107Z,0.00
2018-04-18T00:32:55.080Z,0.00
2018-04-18T00:33:55.070Z,0.00
2018-04-18T00:34:55.053Z,0.00
2018-04-18T00:35:55.090Z,0.00
2018-04-18T00:36:55.027Z,0.00
2018-04-18T00:37:55.110Z,0.00
2018-04-18T00:38:55.002Z,0.00
2018-04-18T00:39:54.984Z,0.00
2018-04-18T00:40:54.975Z,0.00
2018-04-18T00:41:55.027Z,0.00
2018-04-18T00:42:54.944Z,0.00
2018-04-18T00:43:55.082Z,0.00
2018-04-18T00:44:54.914Z,0.00
2018-04-18T00:45:55.004Z,0.00
2018-04-18T00:46:54.884Z,0.00
2018-04-18T00:47:54.943Z,0.00
2018-04-18T00:48:54.858Z,0.00
2018-04-18T00:49:54.864Z,0.00
2018-04-18T00:50:54.833Z,0.00
2018-04-18T00:51:54.871Z,0.00
2018-04-18T00:52:54.803Z,0.00
2018-04-18T00:53:54.788Z,0.00
2018-04-18T00:54:54.774Z,0.00
2018-04-18T00:55:54.807Z,0.00
2018-04-18T00:56:54.744Z,0.00
2018-04-18T00:57:54.729Z,0.00
2018-04-18T00:58:54.719Z,0.00
2018-04-18T00:59:54.706Z,0.00
2018-04-18T01:00:54.694Z,0.00
2018-04-18T01:01:54.674Z,0.00
2018-04-18T01:02:54.663Z,0.00
2018-04-18T01:03:54.652Z,0.00
2018-04-18T01:04:54.634Z,0.00
2018-04-18T01:05:54.623Z,0.00
2018-04-18T01:06:54.607Z,0.00
2018-04-18T01:07:54.595Z,0.00
2018-04-18T01:08:54.574Z,0.00
2018-04-18T01:09:54.563Z,0.00
2018-04-18T01:10:54.550Z,0.00
2018-04-18T01:11:54.535Z,0.00
2018-04-18T01:12:54.524Z,0.00
2018-04-18T01:13:54.514Z,0.00
2018-04-18T01:14:54.494Z,0.00
2018-04-18T01:15:54.476Z,0.00
2018-04-18T01:16:54.462Z,0.00
2018-04-18T01:17:54.454Z,0.00
2018-04-18T01:18:54.437Z,0.00
2018-04-18T01:19:54.428Z,0.00
2018-04-18T01:20:54.409Z,0.00
2018-04-18T01:21:54.391Z,0.00
2018-04-18T01:22:54.380Z,0.00
2018-04-18T01:23:54.363Z,0.00
2018-04-18T01:24:54.347Z,0.00
2018-04-18T01:25:54.331Z,0.00
2018-04-18T01:26:54.321Z,0.00
2018-04-18T01:27:54.305Z,0.00
2018-04-18T01:28:54.292Z,0.00
2018-04-18T01:29:54.276Z,0.00
2018-04-18T01:30:54.264Z,0.00
2018-04-18T01:31:54.253Z,0.00
2018-04-18T01:32:54.235Z,0.00
2018-04-18T01:33:54.220Z,0.00
2018-04-18T01:34:54.203Z,0.00
2018-04-18T01:35:54.189Z,0.00
2018-04-18T01:36:54.182Z,0.00
2018-04-18T01:37:54.161Z,0.00
2018-04-18T01:38:54.150Z,0.00
2018-04-18T01:39:54.135Z,0.00
2018-04-18T01:40:54.119Z,0.00
2018-04-18T01:41:54.105Z,0.00
2018-04-18T01:42:54.090Z,0.00
2018-04-18T01:43:54.075Z,0.00
2018-04-18T01:44:54.064Z,0.00
2018-04-18T01:45:54.047Z,0.00
2018-04-18T01:46:54.036Z,0.00
2018-04-18T01:47:54.023Z,0.00
2018-04-18T01:48:54.003Z,0.00
2018-04-18T01:49:53.993Z,0.00
2018-04-18T01:50:53.973Z,0.00
2018-04-18T01:51:53.962Z,0.00
2018-04-18T01:52:53.947Z,0.00
2018-04-18T01:53:53.934Z,0.00
2018-04-18T01:54:53.918Z,0.00
2018-04-18T01:55:53.903Z,0.00
2018-04-18T01:56:53.894Z,0.00
2018-04-18T01:57:53.874Z,0.00
2018-04-18T01:58:53.864Z,0.00
2018-04-18T01:59:53.846Z,0.00
2018-04-18T02:00:53.834Z,0.00
2018-04-18T02:01:53.814Z,0.00
2018-04-18T02:02:53.801Z,0.00
2018-04-18T02:03:53.787Z,0.00
2018-04-18T02:04:53.771Z,0.00
2018-04-18T02:05:53.756Z,0.00
2018-04-18T02:06:53.742Z,0.00
2018-04-18T02:07:53.728Z,0.00
2018-04-18T02:08:53.713Z,0.00
2018-04-18T02:09:53.703Z,0.00
2018-04-18T02:10:53.683Z,0.00
2018-04-18T02:11:53.669Z,0.00
2018-04-18T02:12:53.658Z,0.00
2018-04-18T02:13:53.644Z,0.00
2018-04-18T02:14:53.623Z,0.00
2018-04-18T02:15:53.612Z,0.00
2018-04-18T02:16:53.599Z,0.00
2018-04-18T02:17:53.583Z,0.00
2018-04-18T02:18:53.566Z,0.00
2018-04-18T02:19:53.550Z,0.00
2018-04-18T02:20:53.535Z,0.00
2018-04-18T02:21:53.520Z,0.00
2018-04-18T02:22:53.514Z,0.00
2018-04-18T02:23:53.491Z,0.00
2018-04-18T02:24:53.584Z,0.00
2018-04-18T02:25:53.462Z,0.00
2018-04-18T02:26:53.553Z,0.00
2018-04-18T02:27:53.437Z,0.00
2018-04-18T02:28:53.454Z,0.00
2018-04-18T02:29:53.406Z,0.00
2018-04-18T02:30:53.395Z,0.00
2018-04-18T02:31:53.380Z,0.00
2018-04-18T02:32:53.414Z,0.00
2018-04-18T02:33:53.346Z,0.00
2018-04-18T02:34:53.333Z,0.00
2018-04-18T02:35:53.317Z,0.00
2018-04-18T02:36:53.302Z,0.00
2018-04-18T02:37:53.293Z,0.00
2018-04-18T02:38:53.320Z,0.00
2018-04-18T02:39:53.257Z,0.00
2018-04-18T02:40:53.293Z,0.00
2018-04-18T02:41:53.234Z,0.00
2018-04-18T02:42:53.319Z,0.00
2018-04-18T02:43:53.215Z,0.00
2018-04-18T02:44:53.487Z,0.00
2018-04-18T02:45:53.167Z,0.00
2018-04-18T02:46:53.155Z,0.00
2018-04-18T02:47:53.146Z,0.00
2018-04-18T02:48:53.175Z,0.00
2018-04-18T02:49:53.112Z,0.00
2018-04-18T02:50:53.099Z,0.00
2018-04-18T02:51:53.091Z,0.00
2018-04-18T02:52:53.061Z,0.00
2018-04-18T02:53:53.048Z,0.00
2018-04-18T02:54:53.033Z,0.00
2018-04-18T02:55:53.016Z,0.00
2018-04-18T02:56:53.003Z,0.00
2018-04-18T02:57:52.995Z,0.00
2018-04-18T02:58:52.973Z,0.00
2018-04-18T02:59:52.960Z,0.00
2018-04-18T03:00:52.942Z,0.00
2018-04-18T03:01:52.931Z,0.00
2018-04-18T03:02:52.916Z,0.00
2018-04-18T03:03:53.154Z,0.00
2018-04-18T03:04:52.879Z,0.00
2018-04-18T03:05:52.868Z,0.00
2018-04-18T03:06:52.855Z,0.00
2018-04-18T03:07:52.842Z,0.00
2018-04-18T03:08:52.823Z,0.00
2018-04-18T03:09:52.809Z,0.00
2018-04-18T03:10:52.810Z,0.00
2018-04-18T03:11:52.774Z,0.00
2018-04-18T03:12:52.763Z,0.00
2018-04-18T03:13:52.746Z,0.00
2018-04-18T03:14:52.732Z,0.00
2018-04-18T03:15:52.716Z,0.00
2018-04-18T03:16:52.698Z,0.00
2018-04-18T03:17:52.690Z,0.00
2018-04-18T03:18:52.679Z,0.00
2018-04-18T03:19:52.651Z,0.00
2018-04-18T03:20:52.643Z,0.00
2018-04-18T03:21:52.623Z,0.00
2018-04-18T03:22:52.616Z,0.00
2018-04-18T03:23:52.593Z,0.00
2018-04-18T03:24:52.583Z,0.00
2018-04-18T03:25:52.562Z,0.00
2018-04-18T03:26:52.547Z,0.00
2018-04-18T03:27:52.532Z,0.00
2018-04-18T03:28:52.518Z,0.00
2018-04-18T03:29:52.507Z,0.00
2018-04-18T03:30:52.494Z,0.00
2018-04-18T03:31:52.475Z,0.00
2018-04-18T03:32:52.464Z,0.00
2018-04-18T03:33:52.445Z,0.00
2018-04-18T03:34:52.431Z,0.00
2018-04-18T03:35:52.452Z,0.00
2018-04-18T03:36:52.399Z,0.00
2018-04-18T03:37:52.382Z,0.00
2018-04-18T03:38:52.372Z,0.00
2018-04-18T03:39:52.354Z,0.00
2018-04-18T03:40:52.408Z,0.00
2018-04-18T03:41:52.319Z,0.00
2018-04-18T03:42:52.305Z,0.00
2018-04-18T03:43:52.293Z,0.00
2018-04-18T03:44:52.277Z,0.00
2018-04-18T03:45:52.260Z,0.00
2018-04-18T03:46:52.242Z,0.00
2018-04-18T03:47:52.233Z,0.00
2018-04-18T03:48:52.212Z,0.00
2018-04-18T03:49:52.202Z,0.00
2018-04-18T03:50:52.183Z,0.00
2018-04-18T03:51:52.172Z,0.00
2018-04-18T03:52:52.152Z,0.00
2018-04-18T03:53:52.137Z,0.00
2018-04-18T03:54:52.121Z,0.00
2018-04-18T03:55:52.107Z,4.00
2018-04-18T03:56:52.092Z,0.00
2018-04-18T03:57:52.077Z,0.00
2018-04-18T03:58:52.061Z,4.00
2018-04-18T03:59:52.043Z,4.00
2018-04-18T04:00:52.031Z,4.00
2018-04-18T04:01:52.025Z,4.00
2018-04-18T04:02:51.999Z,4.00
2018-04-18T04:03:51.984Z,8.00
2018-04-18T04:04:51.971Z,8.00
2018-04-18T04:05:51.952Z,8.00
2018-04-18T04:06:51.943Z,8.00
2018-04-18T04:07:51.922Z,8.00
2018-04-18T04:08:51.907Z,12.00
2018-04-18T04:09:51.905Z,16.00
2018-04-18T04:10:51.878Z,16.00
2018-04-18T04:11:51.863Z,20.00
2018-04-18T04:12:51.851Z,20.00
2018-04-18T04:13:51.834Z,24.00
2018-04-18T04:14:51.813Z,28.00
2018-04-18T04:15:51.803Z,36.00
2018-04-18T04:16:51.785Z,40.00
2018-04-18T04:17:51.772Z,44.00
2018-04-18T04:18:51.753Z,52.00
2018-04-18T04:19:51.740Z,56.00
2018-04-18T04:20:51.721Z,64.00
2018-04-18T04:21:51.710Z,72.00
2018-04-18T04:22:51.692Z,80.00
2018-04-18T04:23:51.676Z,88.00
2018-04-18T04:24:51.717Z,100.00
2018-04-18T04:25:51.644Z,112.00
2018-04-18T04:26:51.634Z,120.00
2018-04-18T04:27:51.713Z,128.00
2018-04-18T04:28:51.598Z,144.00
2018-04-18T04:29:51.664Z,156.00
2018-04-18T04:30:51.567Z,172.00
2018-04-18T04:31:51.550Z,188.00
2018-04-18T04:32:51.535Z,200.00
2018-04-18T04:33:51.623Z,216.00
2018-04-18T04:34:51.507Z,232.00
2018-04-18T04:35:51.591Z,252.00
2018-04-18T04:36:51.474Z,272.00
2018-04-18T04:37:51.558Z,292.00
2018-04-18T04:38:51.442Z,312.00
2018-04-18T04:39:51.481Z,332.00
2018-04-18T04:40:51.411Z,352.00
2018-04-18T04:41:51.407Z,376.00
2018-04-18T04:42:51.388Z,400.00
2018-04-18T04:43:51.368Z,424.00
2018-04-18T04:44:51.364Z,452.00
2018-04-18T04:45:51.332Z,480.00
2018-04-18T04:46:51.318Z,508.00
2018-04-18T04:47:51.306Z,532.00
2018-04-18T04:48:51.288Z,560.00
2018-04-18T04:49:51.272Z,592.00
2018-04-18T04:50:51.255Z,616.00
2018-04-18T04:51:51.250Z,648.00
2018-04-18T04:52:51.224Z,676.00
2018-04-18T04:53:51.209Z,708.00
2018-04-18T04:54:51.196Z,744.00
2018-04-18T04:55:51.186Z,772.00
2018-04-18T04:56:51.162Z,808.00
2018-04-18T04:57:51.146Z,840.00
2018-04-18T04:58:51.133Z,876.00
2018-04-18T04:59:51.124Z,908.00
2018-04-18T05:00:51.101Z,944.00
2018-04-18T05:01:51.091Z,980.00
2018-04-18T05:02:51.080Z,1012.00
2018-04-18T05:03:51.059Z,1044.00
2018-04-18T05:04:51.047Z,1080.00
2018-04-18T05:05:51.023Z,1112.00
2018-04-18T05:06:51.011Z,1148.00
2018-04-18T05:07:50.992Z,1180.00
2018-04-18T05:08:50.980Z,1212.00
2018-04-18T05:09:50.962Z,1248.00
2018-04-18T05:10:50.950Z,1284.00
2018-04-18T05:11:50.933Z,1324.00
2018-04-18T05:12:50.919Z,1356.00
2018-04-18T05:13:50.900Z,1388.00
2018-04-18T05:14:50.882Z,1428.00
2018-04-18T05:15:50.871Z,1464.00
2018-04-18T05:16:50.854Z,1500.00
2018-04-18T05:17:50.838Z,1544.00
2018-04-18T05:18:50.824Z,1576.00
2018-04-18T05:19:50.814Z,1616.00
2018-04-18T05:20:50.811Z,1648.00
2018-04-18T05:21:50.775Z,1688.00
2018-04-18T05:22:50.763Z,1720.00
2018-04-18T05:23:50.744Z,1760.00
2018-04-18T05:24:50.730Z,1800.00
2018-04-18T05:25:50.710Z,1836.00
2018-04-18T05:26:50.695Z,1876.00
2018-04-18T05:27:50.680Z,1908.00
2018-04-18T05:28:50.664Z,1944.00
2018-04-18T05:29:50.654Z,1976.00
2018-04-18T05:30:50.666Z,2012.00
2018-04-18T05:31:50.625Z,2044.00
2018-04-18T05:32:50.609Z,2080.00
2018-04-18T05:33:50.587Z,2120.00
2018-04-18T05:34:50.572Z,2156.00
2018-04-18T05:35:50.552Z,2192.00
2018-04-18T05:36:50.550Z,2232.00
2018-04-18T05:37:50.529Z,2268.00
2018-04-18T05:38:50.516Z,2308.00
2018-04-18T05:39:50.494Z,2356.00
2018-04-18T05:40:50.473Z,2396.00
2018-04-18T05:41:50.461Z,2436.00
2018-04-18T05:42:50.447Z,2476.00
2018-04-18T05:43:50.425Z,2516.00
2018-04-18T05:44:50.409Z,2560.00
2018-04-18T05:45:50.392Z,2600.00
2018-04-18T05:46:50.384Z,2640.00
2018-04-18T05:47:50.362Z,2680.00
2018-04-18T05:48:50.346Z,2716.00
2018-04-18T05:49:50.328Z,2756.00
2018-04-18T05:50:50.324Z,2792.00
2018-04-18T05:51:50.298Z,2824.00
2018-04-18T05:52:50.284Z,2868.00
2018-04-18T05:53:50.267Z,2908.00
2018-04-18T05:54:50.286Z,2948.00
2018-04-18T05:55:50.244Z,2984.00
2018-04-18T05:56:50.236Z,3020.00
2018-04-18T05:57:50.227Z,3060.00
2018-04-18T05:58:50.194Z,3104.00
2018-04-18T05:59:50.178Z,3152.00
2018-04-18T06:00:50.174Z,3204.00
2018-04-18T06:01:50.145Z,3232.00
2018-04-18T06:02:50.132Z,3268.00
2018-04-18T06:03:50.124Z,3312.00
2018-04-18T06:04:50.129Z,3344.00
2018-04-18T06:05:50.094Z,3380.00
2018-04-18T06:06:50.073Z,3420.00
2018-04-18T06:07:50.059Z,3464.00
2018-04-18T06:08:50.050Z,3500.00
2018-04-18T06:09:50.023Z,3540.00
2018-04-18T06:10:50.009Z,3580.00
2018-04-18T06:11:49.993Z,3616.00
2018-04-18T06:12:49.983Z,3656.00
2018-04-18T06:13:49.961Z,3700.00
2018-04-18T06:14:49.957Z,3740.00
2018-04-18T06:15:49.938Z,3784.00
2018-04-18T06:16:49.923Z,3828.00
2018-04-18T06:17:49.904Z,3880.00
2018-04-18T06:18:49.895Z,3924.00
2018-04-18T06:19:49.874Z,3968.00
2018-04-18T06:20:49.860Z,4020.00
2018-04-18T06:21:49.842Z,4064.00
2018-04-18T06:22:49.850Z,4120.00
2018-04-18T06:23:49.825Z,4164.00
2018-04-18T06:24:49.867Z,4212.00
2018-04-18T06:25:49.793Z,4264.00
2018-04-18T06:26:49.780Z,4320.00
2018-04-18T06:27:49.766Z,4372.00
2018-04-18T06:28:49.745Z,4428.00
2018-04-18T06:29:49.731Z,4484.00
2018-04-18T06:30:49.773Z,4544.00
2018-04-18T06:31:49.703Z,4608.00
2018-04-18T06:32:49.780Z,4672.00
2018-04-18T06:33:49.674Z,4744.00
2018-04-18T06:34:49.760Z,4812.00
2018-04-18T06:35:49.644Z,4884.00
2018-04-18T06:36:49.641Z,4964.00
2018-04-18T06:37:49.616Z,5040.00
2018-04-18T06:38:49.755Z,5108.00
2018-04-18T06:39:49.593Z,5180.00
2018-04-18T06:40:49.623Z,5260.00
2018-04-18T06:41:49.562Z,5340.00
2018-04-18T06:42:49.562Z,5420.00
2018-04-18T06:43:49.531Z,5520.00
2018-04-18T06:44:49.517Z,5628.00
2018-04-18T06:45:49.532Z,5748.00
2018-04-18T06:46:49.493Z,5888.00
2018-04-18T06:47:49.481Z,6104.00
2018-04-18T06:48:49.464Z,8124.00
2018-04-18T06:49:49.452Z,18144.00
2018-04-18T06:50:49.444Z,33440.00
2018-04-18T06:51:49.433Z,49440.00
2018-04-18T06:52:49.430Z,64512.00
2018-04-18T06:53:49.417Z,67904.00
2018-04-18T06:54:49.401Z,67008.00
2018-04-18T06:55:49.393Z,63328.00
2018-04-18T06:56:49.386Z,68160.00
2018-04-18T06:57:49.370Z,70272.00
2018-04-18T06:58:49.371Z,72128.00
2018-04-18T06:59:49.357Z,74784.00
2018-04-18T07:00:49.353Z,74112.00
2018-04-18T07:01:49.353Z,72576.00
2018-04-18T07:02:49.336Z,71712.00
2018-04-18T07:03:49.335Z,74880.00
2018-04-18T07:04:49.324Z,74624.00
2018-04-18T07:05:49.327Z,71776.00
2018-04-18T07:06:49.315Z,73376.00
2018-04-18T07:07:49.309Z,74752.00
2018-04-18T07:08:49.307Z,75808.00
2018-04-18T07:09:49.301Z,76096.00
2018-04-18T07:10:49.296Z,75968.00
2018-04-18T07:11:49.290Z,74144.00
2018-04-18T07:12:49.290Z,73152.00
2018-04-18T07:13:49.289Z,72896.00
2018-04-18T07:14:49.284Z,73056.00
2018-04-18T07:15:49.289Z,76032.00
2018-04-18T07:16:49.281Z,77760.00
2018-04-18T07:17:49.286Z,77664.00
2018-04-18T07:18:49.279Z,76480.00
2018-04-18T07:19:49.274Z,73984.00
2018-04-18T07:20:49.272Z,75200.00
2018-04-18T07:21:49.273Z,76992.00
2018-04-18T07:22:49.273Z,76992.00
2018-04-18T07:23:49.275Z,78016.00
2018-04-18T07:24:49.274Z,78976.00
2018-04-18T07:25:49.272Z,78624.00
2018-04-18T07:26:49.271Z,78336.00
2018-04-18T07:27:49.273Z,79232.00
2018-04-18T07:28:49.274Z,77248.00
2018-04-18T07:29:49.278Z,74336.00
2018-04-18T07:30:49.274Z,76160.00
2018-04-18T07:31:49.290Z,77280.00
2018-04-18T07:32:49.279Z,76416.00
2018-04-18T07:33:49.288Z,78240.00
2018-04-18T07:34:49.284Z,77120.00
2018-04-18T07:35:49.294Z,76640.00
2018-04-18T07:36:49.297Z,76320.00
2018-04-18T07:37:49.296Z,77888.00
2018-04-18T07:38:49.306Z,77888.00
2018-04-18T07:39:49.308Z,76064.00
2018-04-18T07:40:49.307Z,79232.00
2018-04-18T07:41:49.309Z,78816.00
2018-04-18T07:42:49.312Z,78016.00
2018-04-18T07:43:49.322Z,77120.00
2018-04-18T07:44:49.325Z,76576.00
2018-04-18T07:45:49.325Z,77088.00
2018-04-18T07:46:49.335Z,79424.00
2018-04-18T07:47:49.335Z,80960.00
2018-04-18T07:48:49.345Z,80192.00
2018-04-18T07:49:49.344Z,80864.00
2018-04-18T07:50:49.346Z,81056.00
2018-04-18T07:51:49.355Z,80000.00
2018-04-18T07:52:49.360Z,81504.00
2018-04-18T07:53:49.364Z,80992.00
2018-04-18T07:54:49.374Z,79456.00
2018-04-18T07:55:49.375Z,80320.00
2018-04-18T07:56:49.381Z,78432.00
2018-04-18T07:57:49.383Z,73504.00
2018-04-18T07:58:49.394Z,72096.00
2018-04-18T07:59:49.394Z,75328.00
2018-04-18T08:00:49.407Z,79264.00
2018-04-18T08:01:49.408Z,79840.00
2018-04-18T08:02:49.419Z,77984.00
2018-04-18T08:03:49.424Z,77984.00
2018-04-18T08:04:49.427Z,77568.00
2018-04-18T08:05:49.439Z,76096.00
2018-04-18T08:06:49.434Z,75328.00
2018-04-18T08:07:49.454Z,76576.00
2018-04-18T08:08:49.447Z,79360.00
2018-04-18T08:09:49.454Z,77888.00
2018-04-18T08:10:49.470Z,74848.00
2018-04-18T08:11:49.466Z,74688.00
2018-04-18T08:12:49.477Z,75360.00
2018-04-18T08:13:49.480Z,72928.00
2018-04-18T08:14:49.490Z,74816.00
2018-04-18T08:15:49.493Z,74816.00
2018-04-18T08:16:49.509Z,76288.00
2018-04-18T08:17:49.518Z,73440.00
2018-04-18T08:18:49.518Z,69248.00
2018-04-18T08:19:49.524Z,71200.00
2018-04-18T08:20:49.526Z,74368.00
2018-04-18T08:21:49.565Z,76480.00
2018-04-18T08:22:49.553Z,72416.00
2018-04-18T08:23:49.560Z,66656.00
2018-04-18T08:24:49.557Z,69344.00
2018-04-18T08:25:49.565Z,72608.00
2018-04-18T08:26:49.573Z,71776.00
2018-04-18T08:27:49.586Z,71360.00
2018-04-18T08:28:49.593Z,71200.00
2018-04-18T08:29:49.597Z,70752.00
2018-04-18T08:30:49.605Z,66464.00
2018-04-18T08:31:49.618Z,66144.00
2018-04-18T08:32:49.634Z,66912.00
2018-04-18T08:33:49.626Z,66304.00
2018-04-18T08:34:49.644Z,70112.00
2018-04-18T08:35:49.642Z,72960.00
2018-04-18T08:36:49.647Z,72608.00
2018-04-18T08:37:49.660Z,73952.00
2018-04-18T08:38:49.661Z,72352.00
2018-04-18T08:39:49.675Z,71104.00
2018-04-18T08:40:49.693Z,68192.00
2018-04-18T08:41:49.685Z,70656.00
2018-04-18T08:42:49.700Z,64352.00
2018-04-18T08:43:49.705Z,66816.00
2018-04-18T08:44:49.715Z,66080.00
2018-04-18T08:45:49.719Z,65888.00
2018-04-18T08:46:49.724Z,71616.00
2018-04-18T08:47:49.733Z,75552.00
2018-04-18T08:48:49.780Z,77152.00
2018-04-18T08:49:49.746Z,78624.00
2018-04-18T08:50:49.756Z,76320.00
2018-04-18T08:51:49.765Z,74592.00
2018-04-18T08:52:49.774Z,70432.00
2018-04-18T08:53:49.780Z,74336.00
2018-04-18T08:54:49.783Z,71136.00
2018-04-18T08:55:49.793Z,60224.00
2018-04-18T08:56:49.805Z,71616.00
2018-04-18T08:57:49.807Z,69696.00
2018-04-18T08:58:49.816Z,65824.00
2018-04-18T08:59:49.819Z,63584.00
2018-04-18T09:00:49.834Z,61440.00
2018-04-18T09:01:49.832Z,69472.00
2018-04-18T09:02:49.842Z,66240.00
2018-04-18T09:03:49.844Z,62368.00
2018-04-18T09:04:49.856Z,64224.00
2018-04-18T09:05:49.868Z,65760.00
2018-04-18T09:06:49.872Z,62912.00
2018-04-18T09:07:49.871Z,61248.00
2018-04-18T09:08:49.878Z,58656.00
2018-04-18T09:09:49.934Z,58592.00
2018-04-18T09:10:49.893Z,61760.00
2018-04-18T09:11:49.902Z,62368.00
2018-04-18T09:12:49.901Z,53728.00
2018-04-18T09:13:49.912Z,49632.00
2018-04-18T09:14:49.915Z,56704.00
2018-04-18T09:15:49.924Z,55072.00
2018-04-18T09:16:49.922Z,54656.00
2018-04-18T09:17:49.923Z,58528.00
2018-04-18T09:18:49.932Z,59136.00
2018-04-18T09:19:49.938Z,55712.00
2018-04-18T09:20:49.943Z,55360.00
2018-04-18T09:21:49.942Z,54080.00
2018-04-18T09:22:49.948Z,57216.00
2018-04-18T09:23:49.951Z,50752.00
2018-04-18T09:24:49.950Z,46560.00
2018-04-18T09:25:49.960Z,44000.00
2018-04-18T09:26:49.955Z,39136.00
2018-04-18T09:27:49.962Z,38048.00
2018-04-18T09:28:49.963Z,37920.00
2018-04-18T09:29:49.967Z,28480.00
2018-04-18T09:30:49.968Z,19200.00
2018-04-18T09:31:49.971Z,15648.00
2018-04-18T09:32:49.976Z,15392.00
2018-04-18T09:33:49.981Z,14796.00
2018-04-18T09:34:49.983Z,15008.00
2018-04-18T09:35:49.982Z,14856.00
2018-04-18T09:36:49.981Z,14456.00
2018-04-18T09:37:49.981Z,14248.00
2018-04-18T09:38:49.988Z,13728.00
2018-04-18T09:39:49.987Z,13408.00
2018-04-18T09:40:49.987Z,13488.00
2018-04-18T09:41:49.987Z,13468.00
2018-04-18T09:42:49.987Z,13424.00
2018-04-18T09:43:49.991Z,13612.00
2018-04-18T09:44:49.993Z,13548.00
2018-04-18T09:45:49.990Z,13292.00
2018-04-18T09:46:49.991Z,13188.00
2018-04-18T09:47:50.003Z,13108.00
2018-04-18T09:48:50.000Z,13212.00
2018-04-18T09:49:49.993Z,13144.00
2018-04-18T09:50:49.991Z,12776.00
2018-04-18T09:51:49.992Z,12492.00
2018-04-18T09:52:49.992Z,12420.00
2018-04-18T09:53:50.001Z,12284.00
2018-04-18T09:54:49.993Z,12072.00
2018-04-18T09:55:49.993Z,11708.00
2018-04-18T09:56:49.992Z,11664.00
2018-04-18T09:57:49.991Z,11680.00
2018-04-18T09:58:50.004Z,11704.00
2018-04-18T09:59:49.985Z,11684.00
2018-04-18T10:00:49.991Z,11632.00
2018-04-18T10:01:49.982Z,11512.00
2018-04-18T10:02:49.990Z,11236.00
2018-04-18T10:03:49.984Z,11216.00
2018-04-18T10:04:49.982Z,11036.00
2018-04-18T10:05:49.989Z,11088.00
2018-04-18T10:06:49.975Z,11180.00
2018-04-18T10:07:49.982Z,11308.00
2018-04-18T10:08:49.972Z,11236.00
2018-04-18T10:09:49.972Z,11088.00
2018-04-18T10:10:49.967Z,11172.00
2018-04-18T10:11:49.966Z,11068.00
2018-04-18T10:12:49.967Z,11256.00
2018-04-18T10:13:49.969Z,11224.00
2018-04-18T10:14:49.963Z,11148.00
2018-04-18T10:15:49.967Z,11260.00
2018-04-18T10:16:49.956Z,11084.00
2018-04-18T10:17:49.952Z,10912.00
2018-04-18T10:18:49.951Z,10956.00
2018-04-18T10:19:49.948Z,10780.00
2018-04-18T10:20:49.952Z,10648.00
2018-04-18T10:21:49.939Z,10564.00
2018-04-18T10:22:50.000Z,10292.00
2018-04-18T10:23:49.937Z,10212.00
2018-04-18T10:24:49.936Z,10172.00
2018-04-18T10:25:49.934Z,10088.00
2018-04-18T10:26:49.932Z,10164.00
2018-04-18T10:27:49.930Z,10152.00
2018-04-18T10:28:49.927Z,10168.00
2018-04-18T10:29:49.920Z,10228.00
2018-04-18T10:30:49.924Z,10284.00
2018-04-18T10:31:49.914Z,10336.00
2018-04-18T10:32:49.911Z,10380.00
2018-04-18T10:33:49.911Z,10312.00
2018-04-18T10:34:49.907Z,10328.00
2018-04-18T10:35:49.907Z,10296.00
2018-04-18T10:36:49.903Z,10260.00
2018-04-18T10:37:49.894Z,10380.00
2018-04-18T10:38:49.894Z,10536.00
2018-04-18T10:39:49.892Z,10416.00
2018-04-18T10:40:49.899Z,10400.00
2018-04-18T10:41:49.885Z,10432.00
2018-04-18T10:42:49.879Z,10276.00
2018-04-18T10:43:49.878Z,10368.00
2018-04-18T10:44:49.872Z,10728.00
2018-04-18T10:45:49.872Z,10576.00
2018-04-18T10:46:49.872Z,10548.00
2018-04-18T10:47:49.865Z,10340.00
2018-04-18T10:48:49.862Z,10276.00
2018-04-18T10:49:49.859Z,10200.00
2018-04-18T10:50:49.851Z,10232.00
2018-04-18T10:51:49.847Z,10132.00
2018-04-18T10:52:49.854Z,9784.00
2018-04-18T10:53:49.840Z,9888.00
2018-04-18T10:54:49.835Z,9968.00
2018-04-18T10:55:49.841Z,10216.00
2018-04-18T10:56:49.832Z,10288.00
2018-04-18T10:57:49.834Z,10212.00
2018-04-18T10:58:49.826Z,10296.00
2018-04-18T10:59:49.828Z,10380.00
2018-04-18T11:00:49.841Z,10248.00
2018-04-18T11:01:49.814Z,10216.00
2018-04-18T11:02:49.813Z,10200.00
2018-04-18T11:03:49.805Z,10212.00
2018-04-18T11:04:49.802Z,10160.00
2018-04-18T11:05:49.846Z,10252.00
2018-04-18T11:06:49.797Z,10168.00
2018-04-18T11:07:49.845Z,10156.00
2018-04-18T11:08:49.797Z,10028.00
2018-04-18T11:09:49.792Z,9988.00
2018-04-18T11:10:49.785Z,9956.00
2018-04-18T11:11:49.830Z,9668.00
2018-04-18T11:12:49.776Z,9836.00
2018-04-18T11:13:49.775Z,9672.00
2018-04-18T11:14:49.776Z,9636.00
2018-04-18T11:15:49.813Z,9580.00
2018-04-18T11:16:49.762Z,9452.00
2018-04-18T11:17:49.760Z,9336.00
2018-04-18T11:18:49.751Z,9264.00
2018-04-18T11:19:49.752Z,9160.00
2018-04-18T11:20:49.758Z,8916.00
2018-04-18T11:21:49.745Z,8956.00
2018-04-18T11:22:49.736Z,9284.00
2018-04-18T11:23:49.746Z,9100.00
2018-04-18T11:24:49.732Z,9184.00
2018-04-18T11:25:49.729Z,9580.00
2018-04-18T11:26:49.723Z,9892.00
2018-04-18T11:27:49.723Z,10008.00
2018-04-18T11:28:49.723Z,9912.00
2018-04-18T11:29:49.716Z,9972.00
2018-04-18T11:30:49.714Z,9956.00
2018-04-18T11:31:49.707Z,10228.00
2018-04-18T11:32:49.706Z,10120.00
2018-04-18T11:33:49.705Z,10320.00
2018-04-18T11:34:49.698Z,10232.00
2018-04-18T11:35:49.702Z,10264.00
2018-04-18T11:36:49.702Z,10244.00
2018-04-18T11:37:49.690Z,10216.00
2018-04-18T11:38:49.689Z,10000.00
2018-04-18T11:39:49.719Z,9876.00
2018-04-18T11:40:49.684Z,9976.00
2018-04-18T11:41:49.677Z,10056.00
2018-04-18T11:42:49.775Z,9964.00
2018-04-18T11:43:49.673Z,9972.00
2018-04-18T11:44:49.727Z,9952.00
2018-04-18T11:45:49.663Z,9560.00
2018-04-18T11:46:49.771Z,9708.00
2018-04-18T11:47:49.654Z,9652.00
2018-04-18T11:48:49.653Z,9496.00
2018-04-18T11:49:49.645Z,9228.00
2018-04-18T11:50:49.644Z,9184.00
2018-04-18T11:51:49.640Z,9268.00
2018-04-18T11:52:49.643Z,8780.00
2018-04-18T11:53:49.634Z,9260.00
2018-04-18T11:54:49.631Z,9516.00
2018-04-18T11:55:49.627Z,9780.00
2018-04-18T11:56:49.620Z,9964.00
2018-04-18T11:57:49.625Z,9948.00
2018-04-18T11:58:49.611Z,9360.00
2018-04-18T11:59:49.619Z,9628.00
2018-04-18T12:00:49.605Z,9444.00
2018-04-18T12:01:49.605Z,9300.00
2018-04-18T12:02:49.606Z,9440.00
2018-04-18T12:03:49.595Z,9564.00
2018-04-18T12:04:49.589Z,9316.00
2018-04-18T12:05:49.586Z,9188.00
2018-04-18T12:06:49.579Z,9576.00
2018-04-18T12:07:49.582Z,9404.00
2018-04-18T12:08:49.573Z,9196.00
2018-04-18T12:09:49.574Z,9392.00
2018-04-18T12:10:49.577Z,9388.00
2018-04-18T12:11:49.650Z,9484.00
2018-04-18T12:12:49.565Z,9484.00
2018-04-18T12:13:49.715Z,9516.00
2018-04-18T12:14:49.560Z,9684.00
2018-04-18T12:15:49.555Z,9512.00
2018-04-18T12:16:49.547Z,9432.00
2018-04-18T12:17:49.594Z,9140.00
2018-04-18T12:18:49.536Z,9172.00
2018-04-18T12:19:49.586Z,8120.00
2018-04-18T12:20:49.528Z,8920.00
2018-04-18T12:21:49.573Z,8908.00
2018-04-18T12:22:49.558Z,8800.00